createdAt,value
2019-01-28T00:00:24.443Z,14.47
2019-01-28T00:02:53.371Z,12.10
2019-01-28T00:05:20.465Z,10.33
2019-01-28T00:07:48.440Z,16.10
2019-01-28T00:10:15.486Z,10.90
2019-01-28T00:12:42.537Z,12.17
2019-01-28T00:15:10.093Z,11.87
2019-01-28T00:17:37.143Z,13.83
2019-01-28T00:20:05.829Z,12.27
2019-01-28T00:22:32.883Z,148.43
2019-01-28T00:24:59.926Z,221.90
2019-01-28T00:27:26.975Z,200.13
2019-01-28T00:29:54.029Z,124.43
2019-01-28T00:32:21.075Z,89.27
2019-01-28T00:34:48.121Z,133.00
2019-01-28T00:37:16.098Z,76.33
2019-01-28T00:39:44.879Z,36.70
2019-01-28T00:42:11.934Z,98.00
2019-01-28T00:44:38.991Z,56.03
2019-01-28T00:47:06.025Z,63.23
2019-01-28T00:49:33.080Z,34.30
2019-01-28T00:52:05.821Z,15.40
2019-01-28T00:54:32.804Z,10.70
2019-01-28T00:56:59.852Z,12.67
2019-01-28T00:59:26.905Z,9.80
2019-01-28T01:01:53.844Z,13.73
2019-01-28T01:04:20.899Z,8.40
2019-01-28T01:06:47.942Z,10.83
2019-01-28T01:09:14.991Z,7.90
2019-01-28T01:11:42.046Z,9.07
2019-01-28T01:14:09.090Z,7.40
2019-01-28T01:16:37.630Z,19.00
2019-01-28T01:19:04.620Z,25.70
2019-01-28T01:21:31.668Z,16.77
2019-01-28T01:24:00.565Z,20.20
2019-01-28T01:26:27.626Z,83.07
2019-01-28T01:28:54.657Z,22.40
2019-01-28T01:31:21.709Z,14.87
2019-01-28T01:33:48.960Z,11.73
2019-01-28T01:36:16.012Z,18.03
2019-01-28T01:38:43.054Z,41.13
2019-01-28T01:41:10.105Z,67.80
2019-01-28T01:43:37.171Z,17.50
2019-01-28T01:46:04.202Z,22.47
2019-01-28T01:48:31.152Z,11.03
2019-01-28T01:50:58.304Z,17.83
2019-01-28T01:53:25.366Z,16.17
2019-01-28T01:55:52.809Z,22.90
2019-01-28T01:58:19.810Z,26.10
2019-01-28T02:00:46.909Z,38.73
2019-01-28T02:03:14.259Z,22.83
2019-01-28T02:05:41.309Z,23.57
2019-01-28T02:08:30.839Z,11.83
2019-01-28T02:11:17.343Z,10.57
2019-01-28T02:13:44.444Z,10.67
2019-01-28T02:16:11.485Z,11.50
2019-01-28T02:18:40.377Z,10.60
2019-01-28T02:21:07.429Z,5.73
2019-01-28T02:23:35.088Z,7.27
2019-01-28T02:26:02.239Z,6.23
2019-01-28T02:28:29.288Z,7.83
2019-01-28T02:30:56.349Z,7.23
2019-01-28T02:33:23.591Z,6.20
2019-01-28T02:35:50.644Z,5.13
2019-01-28T02:38:17.685Z,10.50
2019-01-28T02:40:44.734Z,7.00
2019-01-28T02:43:11.733Z,9.43
2019-01-28T02:45:38.737Z,8.63
2019-01-28T02:48:05.782Z,10.77
2019-01-28T02:50:32.829Z,7.07
2019-01-28T02:52:59.875Z,7.90
2019-01-28T02:55:26.932Z,7.23
2019-01-28T02:57:53.869Z,3.87
2019-01-28T03:00:21.021Z,7.03
2019-01-28T03:02:49.918Z,7.47
2019-01-28T03:05:16.976Z,2.70
2019-01-28T03:07:44.009Z,4.37
2019-01-28T03:10:11.066Z,5.00
2019-01-28T03:12:38.107Z,9.80
2019-01-28T03:15:05.257Z,9.07
2019-01-28T03:17:32.307Z,8.60
2019-01-28T03:19:59.362Z,8.30
2019-01-28T03:22:26.403Z,9.77
2019-01-28T03:24:53.410Z,8.87
2019-01-28T03:27:20.398Z,8.67
2019-01-28T03:29:47.446Z,7.00
2019-01-28T03:32:14.505Z,6.47
2019-01-28T03:34:41.546Z,10.10
2019-01-28T03:37:08.592Z,11.80
2019-01-28T03:39:35.647Z,9.17
2019-01-28T03:42:02.689Z,9.00
2019-01-28T03:44:29.739Z,8.10
2019-01-28T03:46:56.736Z,10.73
2019-01-28T03:49:23.686Z,9.07
2019-01-28T03:51:50.787Z,10.20
2019-01-28T03:54:17.827Z,8.20
2019-01-28T03:56:44.877Z,7.40
2019-01-28T03:59:11.933Z,7.57
2019-01-28T04:01:38.976Z,10.60
2019-01-28T04:04:06.023Z,10.67
2019-01-28T04:06:33.076Z,8.53
2019-01-28T04:09:00.139Z,6.23
2019-01-28T04:11:27.783Z,6.10
2019-01-28T04:13:56.778Z,4.90
2019-01-28T04:16:23.782Z,7.93
2019-01-28T04:18:50.722Z,4.43
2019-01-28T04:21:17.825Z,3.90
2019-01-28T04:23:44.869Z,9.03
2019-01-28T04:26:12.639Z,4.10
2019-01-28T04:28:39.784Z,4.23
2019-01-28T04:31:06.836Z,5.53
2019-01-28T04:33:33.890Z,9.87
2019-01-28T04:36:00.942Z,6.27
2019-01-28T04:38:27.979Z,7.20
2019-01-28T04:40:55.034Z,6.80
2019-01-28T04:43:22.079Z,9.17
2019-01-28T04:45:49.126Z,8.40
2019-01-28T04:48:16.179Z,1.27
2019-01-28T04:50:43.227Z,7.93
2019-01-28T04:53:10.273Z,9.80
2019-01-28T04:55:37.295Z,10.63
2019-01-28T04:58:04.384Z,9.90
2019-01-28T05:00:31.419Z,12.87
2019-01-28T05:02:58.471Z,7.93
2019-01-28T05:05:25.523Z,10.10
2019-01-28T05:07:52.562Z,9.40
2019-01-28T05:10:19.634Z,10.53
2019-01-28T05:12:46.774Z,10.23
2019-01-28T05:15:13.921Z,10.90
2019-01-28T05:17:40.961Z,12.43
2019-01-28T05:20:09.160Z,15.93
2019-01-28T05:22:36.196Z,11.40
2019-01-28T05:25:05.382Z,24.93
2019-01-28T05:27:32.435Z,23.33
2019-01-28T05:29:59.479Z,17.67
2019-01-28T05:32:27.460Z,8.47
2019-01-28T05:34:54.513Z,10.87
2019-01-28T05:37:21.558Z,11.90
2019-01-28T05:39:49.114Z,10.90
2019-01-28T05:42:17.409Z,7.67
2019-01-28T05:44:44.437Z,8.83
2019-01-28T05:47:11.486Z,7.40
2019-01-28T05:49:38.886Z,9.07
2019-01-28T05:52:05.874Z,8.70
2019-01-28T05:54:32.939Z,10.37
2019-01-28T05:56:59.983Z,7.80
2019-01-28T05:59:27.032Z,10.20
2019-01-28T06:01:54.101Z,10.83
2019-01-28T06:04:21.138Z,10.03
2019-01-28T06:06:50.491Z,11.30
2019-01-28T06:09:17.479Z,8.43
2019-01-28T06:11:44.531Z,9.67
2019-01-28T06:14:11.575Z,11.57
2019-01-28T06:16:38.623Z,11.27
2019-01-28T06:19:05.682Z,8.90
2019-01-28T06:21:32.720Z,11.53
2019-01-28T06:24:01.919Z,14.73
2019-01-28T06:26:29.069Z,10.50
2019-01-28T06:28:56.127Z,11.53
2019-01-28T06:31:23.170Z,11.67
2019-01-28T06:33:50.217Z,11.83
2019-01-28T06:36:17.270Z,11.07
2019-01-28T06:38:44.313Z,6.43
2019-01-28T06:41:13.307Z,11.53
2019-01-28T06:43:40.355Z,8.53
2019-01-28T06:46:07.358Z,11.67
2019-01-28T06:48:34.529Z,12.53
2019-01-28T06:51:01.605Z,13.93
2019-01-28T06:53:28.651Z,14.47
2019-01-28T06:55:55.705Z,10.73
2019-01-28T06:58:22.748Z,22.90
2019-01-28T07:00:49.799Z,14.83
2019-01-28T07:03:17.051Z,14.77
2019-01-28T07:05:44.201Z,12.27
2019-01-28T07:08:11.262Z,11.90
2019-01-28T07:10:38.244Z,12.40
2019-01-28T07:13:05.761Z,7.53
2019-01-28T07:15:32.804Z,8.97
2019-01-28T07:17:59.855Z,6.37
2019-01-28T07:20:30.593Z,9.37
2019-01-28T07:22:57.637Z,7.40
2019-01-28T07:25:24.685Z,7.80
2019-01-28T07:27:53.122Z,6.33
2019-01-28T07:30:20.935Z,7.37
2019-01-28T07:32:47.981Z,4.80
2019-01-28T07:35:15.281Z,4.37
2019-01-28T07:37:42.283Z,2.57
2019-01-28T07:40:09.340Z,2.30
2019-01-28T07:42:37.611Z,1.43
2019-01-28T07:45:04.663Z,1.40
2019-01-28T07:47:31.611Z,2.63
2019-01-28T07:49:59.837Z,0.93
2019-01-28T07:52:26.830Z,0.50
2019-01-28T07:54:53.832Z,0.50
2019-01-28T07:57:20.820Z,1.00
2019-01-28T07:59:47.871Z,0.60
2019-01-28T08:02:14.868Z,1.10
2019-01-28T08:04:42.173Z,1.30
2019-01-28T08:07:11.316Z,1.47
2019-01-28T08:09:38.318Z,1.43
2019-01-28T08:12:05.312Z,0.40
2019-01-28T08:14:32.414Z,0.53
2019-01-28T08:16:59.430Z,1.40
2019-01-28T08:19:27.340Z,2.70
2019-01-28T08:21:54.379Z,2.33
2019-01-28T08:24:21.633Z,12.80
2019-01-28T08:26:48.747Z,2.60
2019-01-28T08:29:15.894Z,20.67
2019-01-28T08:31:42.982Z,3.30
2019-01-28T08:34:11.777Z,4.23
2019-01-28T08:36:38.922Z,3.13
2019-01-28T08:39:06.073Z,10.80
2019-01-28T08:41:33.123Z,0.83
2019-01-28T08:44:00.289Z,1.00
2019-01-28T08:46:30.282Z,0.87
2019-01-28T08:48:54.478Z,0.83
2019-01-28T08:51:21.524Z,0.93
2019-01-28T08:53:48.569Z,0.93
2019-01-28T08:56:16.762Z,1.37
2019-01-28T08:58:42.691Z,0.20
2019-01-28T09:01:09.810Z,0.53
2019-01-28T09:03:37.690Z,0.73
2019-01-28T09:06:04.706Z,0.77
2019-01-28T09:08:31.782Z,1.17
2019-01-28T09:10:59.548Z,1.60
2019-01-28T09:13:26.563Z,0.83
2019-01-28T09:15:53.654Z,0.97
2019-01-28T09:18:26.305Z,0.70
2019-01-28T09:20:48.151Z,1.07
2019-01-28T09:23:15.159Z,0.90
2019-01-28T09:25:42.661Z,0.73
2019-01-28T09:28:09.713Z,1.07
2019-01-28T09:30:36.755Z,1.23
2019-01-28T09:33:04.321Z,1.57
2019-01-28T09:35:31.578Z,0.37
2019-01-28T09:37:58.822Z,0.60
2019-01-28T09:40:26.895Z,0.30
2019-01-28T09:42:53.881Z,0.43
2019-01-28T09:45:21.911Z,1.10
2019-01-28T09:47:48.961Z,0.50
2019-01-28T09:50:18.608Z,0.40
2019-01-28T09:52:45.776Z,0.33
2019-01-28T09:55:12.877Z,0.63
2019-01-28T09:57:39.976Z,0.93
2019-01-28T10:00:22.129Z,0.33
2019-01-28T10:02:51.272Z,0.30
2019-01-28T10:05:19.459Z,1.80
2019-01-28T10:07:46.545Z,2.77
2019-01-28T10:10:13.746Z,0.70
2019-01-28T10:12:41.776Z,11.40
2019-01-28T10:15:09.030Z,0.33
2019-01-28T10:17:36.071Z,0.63
2019-01-28T10:20:03.148Z,1.20
2019-01-28T10:22:46.737Z,1.50
2019-01-28T10:25:13.782Z,1.67
2019-01-28T10:27:40.962Z,4.80
2019-01-28T10:30:08.109Z,1.60
2019-01-28T10:32:36.180Z,1.60
2019-01-28T10:35:02.307Z,1.20
2019-01-28T10:37:30.300Z,1.10
2019-01-28T10:39:57.647Z,1.53
2019-01-28T10:42:24.658Z,1.40
2019-01-28T10:44:51.736Z,1.70
2019-01-28T10:47:18.888Z,5.17
2019-01-28T10:49:45.935Z,3.27
2019-01-28T10:52:12.978Z,10.27
2019-01-28T10:54:40.035Z,7.60
2019-01-28T10:57:07.130Z,5.90
2019-01-28T10:59:34.347Z,2.87
2019-01-28T11:02:01.324Z,8.03
2019-01-28T11:04:28.735Z,1.70
2019-01-28T11:06:55.787Z,1.10
2019-01-28T11:09:22.835Z,1.33
2019-01-28T11:11:51.209Z,1.70
2019-01-28T11:14:18.208Z,3.10
2019-01-28T11:16:45.293Z,8.60
2019-01-28T11:19:13.095Z,1.87
2019-01-28T11:21:40.120Z,1.33
2019-01-28T11:24:07.071Z,1.20
2019-01-28T11:26:34.224Z,1.20
2019-01-28T11:29:01.264Z,1.50
2019-01-28T11:31:28.448Z,1.40
2019-01-28T11:33:55.547Z,1.80
2019-01-28T11:36:22.541Z,5.27
2019-01-28T11:38:49.700Z,11.57
2019-01-28T11:41:16.791Z,3.20
2019-01-28T11:43:43.858Z,3.37
2019-01-28T11:46:10.916Z,1.23
2019-01-28T11:48:37.966Z,3.37
2019-01-28T11:51:05.116Z,1.70
2019-01-28T11:53:32.707Z,1.63
2019-01-28T11:55:59.823Z,3.17
2019-01-28T11:58:26.878Z,2.60
2019-01-28T12:00:54.642Z,2.47
2019-01-28T12:03:21.633Z,4.60
2019-01-28T12:05:48.636Z,5.07
2019-01-28T12:08:15.680Z,5.90
2019-01-28T12:10:42.730Z,4.43
2019-01-28T12:13:09.784Z,4.57
2019-01-28T12:15:36.825Z,4.50
2019-01-28T12:18:08.213Z,5.10
2019-01-28T12:20:35.718Z,3.60
2019-01-28T12:23:02.770Z,7.83
2019-01-28T12:25:30.045Z,7.53
2019-01-28T12:27:57.073Z,3.73
2019-01-28T12:30:24.223Z,3.23
2019-01-28T12:32:51.263Z,2.20
2019-01-28T12:35:18.321Z,2.33
2019-01-28T12:37:45.378Z,3.07
2019-01-28T12:40:14.823Z,4.73
2019-01-28T12:42:41.359Z,3.20
2019-01-28T12:45:09.441Z,3.47
2019-01-28T12:47:36.884Z,3.40
2019-01-28T12:50:04.084Z,2.97
2019-01-28T12:52:31.134Z,3.47
2019-01-28T12:54:58.593Z,3.20
2019-01-28T12:57:25.648Z,3.73
2019-01-28T12:59:52.741Z,4.67
2019-01-28T13:02:20.147Z,5.87
2019-01-28T13:04:47.210Z,6.17
2019-01-28T13:07:14.287Z,5.73
2019-01-28T13:09:41.760Z,5.23
2019-01-28T13:12:08.858Z,6.27
2019-01-28T13:14:37.510Z,5.60
2019-01-28T13:17:04.588Z,4.20
2019-01-28T13:19:31.604Z,4.90
2019-01-28T13:21:58.694Z,4.53
2019-01-28T13:24:25.742Z,5.43
2019-01-28T13:26:52.895Z,5.33
2019-01-28T13:29:19.887Z,5.00
2019-01-28T13:31:46.880Z,4.47
2019-01-28T13:34:14.339Z,4.93
2019-01-28T13:36:43.537Z,5.03
2019-01-28T13:39:10.705Z,5.13
2019-01-28T13:41:37.758Z,5.43
2019-01-28T13:44:04.895Z,5.97
2019-01-28T13:46:32.882Z,6.13
2019-01-28T13:49:00.010Z,5.63
2019-01-28T13:51:27.056Z,4.93
2019-01-28T13:53:54.209Z,4.97
2019-01-28T13:56:21.386Z,8.50
2019-01-28T13:58:48.414Z,7.20
2019-01-28T14:01:15.427Z,9.07
2019-01-28T14:03:42.468Z,12.00
2019-01-28T14:06:09.559Z,9.67
2019-01-28T14:08:38.405Z,9.80
2019-01-28T14:11:05.447Z,8.77
2019-01-28T14:13:35.417Z,8.70
2019-01-28T14:16:02.464Z,8.40
2019-01-28T14:18:29.621Z,9.87
2019-01-28T14:20:56.764Z,10.40
2019-01-28T14:23:24.160Z,11.20
2019-01-28T14:25:50.959Z,8.87
2019-01-28T14:28:18.007Z,9.10
2019-01-28T14:30:45.164Z,10.93
2019-01-28T14:33:12.213Z,7.20
2019-01-28T14:35:39.362Z,7.90
2019-01-28T14:38:06.514Z,8.83
2019-01-28T14:40:33.507Z,10.10
2019-01-28T14:43:00.606Z,8.03
2019-01-28T14:45:27.709Z,11.13
2019-01-28T14:47:54.720Z,10.93
2019-01-28T14:50:23.745Z,10.20
2019-01-28T14:52:50.747Z,8.90
2019-01-28T14:55:17.806Z,8.60
2019-01-28T14:57:46.332Z,7.20
2019-01-28T15:00:14.193Z,9.27
2019-01-28T15:02:41.194Z,7.47
2019-01-28T15:05:08.246Z,9.87
2019-01-28T15:07:35.241Z,7.60
2019-01-28T15:10:02.241Z,10.30
2019-01-28T15:12:29.289Z,9.73
2019-01-28T15:14:56.288Z,8.80
2019-01-28T15:17:23.294Z,11.10
2019-01-28T15:19:50.803Z,8.00
2019-01-28T15:22:17.480Z,8.63
2019-01-28T15:24:44.533Z,9.90
2019-01-28T15:27:11.573Z,8.83
2019-01-28T15:29:38.626Z,6.57
2019-01-28T15:32:05.682Z,4.00
2019-01-28T15:34:34.676Z,5.67
2019-01-28T15:37:01.715Z,2.07
2019-01-28T15:39:28.762Z,2.40
2019-01-28T15:41:55.819Z,2.30
2019-01-28T15:44:22.862Z,1.70
2019-01-28T15:46:49.917Z,2.53
2019-01-28T15:49:16.964Z,1.80
2019-01-28T15:51:44.005Z,1.50
2019-01-28T15:54:12.897Z,1.30
2019-01-28T15:56:40.368Z,7.20
2019-01-28T15:59:07.412Z,3.30
2019-01-28T16:01:34.583Z,1.87
2019-01-28T16:04:02.126Z,1.00
2019-01-28T16:06:29.075Z,2.10
2019-01-28T16:08:56.128Z,0.60
2019-01-28T16:11:23.582Z,0.83
2019-01-28T16:13:50.720Z,0.80
2019-01-28T16:16:17.776Z,1.10
2019-01-28T16:18:44.818Z,3.63
2019-01-28T16:21:11.905Z,3.10
2019-01-28T16:23:39.016Z,1.77
2019-01-28T16:26:06.688Z,0.80
2019-01-28T16:28:33.680Z,0.87
2019-01-28T16:31:00.679Z,1.40
2019-01-28T16:33:28.137Z,1.27
2019-01-28T16:35:55.270Z,1.00
2019-01-28T16:38:22.498Z,1.20
2019-01-28T16:40:49.530Z,1.30
2019-01-28T16:43:16.899Z,2.03
2019-01-28T16:45:44.098Z,2.70
2019-01-28T16:48:11.350Z,1.37
2019-01-28T16:50:38.400Z,2.13
2019-01-28T16:53:05.402Z,3.80
2019-01-28T16:55:32.387Z,1.43
2019-01-28T16:57:59.435Z,3.33
2019-01-28T17:00:27.311Z,1.70
2019-01-28T17:02:54.363Z,1.70
2019-01-28T17:05:21.357Z,1.30
2019-01-28T17:07:48.467Z,4.97
2019-01-28T17:10:15.599Z,7.37
2019-01-28T17:12:42.649Z,1.53
2019-01-28T17:15:09.801Z,1.73
2019-01-28T17:17:36.874Z,1.60
2019-01-28T17:20:04.006Z,1.70
2019-01-28T17:22:31.050Z,1.60
2019-01-28T17:24:58.310Z,1.03
2019-01-28T17:27:25.355Z,1.13
2019-01-28T17:29:52.399Z,1.40
2019-01-28T17:32:19.451Z,2.07
2019-01-28T17:34:48.031Z,5.77
2019-01-28T17:37:15.080Z,5.80
2019-01-28T17:39:43.843Z,21.63
2019-01-28T17:42:10.917Z,16.00
2019-01-28T17:44:37.981Z,9.40
2019-01-28T17:47:07.165Z,14.63
2019-01-28T17:49:34.185Z,10.33
2019-01-28T17:52:03.413Z,11.80
2019-01-28T17:54:30.461Z,2.50
2019-01-28T17:56:57.508Z,4.00
2019-01-28T17:59:24.564Z,24.67
2019-01-28T18:01:51.559Z,2.20
2019-01-28T18:04:19.172Z,2.17
2019-01-28T18:06:46.226Z,15.87
2019-01-28T18:09:13.372Z,7.13
2019-01-28T18:11:40.419Z,10.37
2019-01-28T18:14:07.567Z,4.77
2019-01-28T18:16:35.026Z,8.83
2019-01-28T18:19:02.081Z,24.00
2019-01-28T18:21:29.127Z,4.63
2019-01-28T18:23:56.172Z,4.27
2019-01-28T18:26:23.320Z,3.30
2019-01-28T18:28:53.453Z,2.20
2019-01-28T18:31:20.597Z,2.37
2019-01-28T18:33:47.639Z,2.70
2019-01-28T18:36:14.677Z,5.47
2019-01-28T18:38:41.640Z,2.10
2019-01-28T18:41:08.682Z,2.00
2019-01-28T18:43:35.739Z,4.60
2019-01-28T18:46:03.600Z,8.63
2019-01-28T18:48:30.595Z,14.87
2019-01-28T18:51:00.668Z,23.37
2019-01-28T18:53:27.722Z,4.63
2019-01-28T18:55:55.741Z,4.07
2019-01-28T18:58:21.866Z,2.60
2019-01-28T19:00:48.975Z,2.80
2019-01-28T19:03:16.020Z,3.80
2019-01-28T19:05:46.029Z,2.63
2019-01-28T19:08:15.234Z,3.07
2019-01-28T19:10:44.326Z,3.37
2019-01-28T19:13:17.215Z,114.33
2019-01-28T19:15:59.055Z,11.40
2019-01-28T19:18:34.146Z,3.70
2019-01-28T19:21:07.720Z,3.80
2019-01-28T19:23:29.062Z,6.10
2019-01-28T19:25:58.360Z,5.50
2019-01-28T19:28:25.413Z,4.00
2019-01-28T19:30:52.419Z,5.73
2019-01-28T19:33:20.634Z,3.97
2019-01-28T19:35:51.519Z,4.43
2019-01-28T19:38:18.724Z,3.43
2019-01-28T19:40:46.628Z,3.90
2019-01-28T19:43:13.600Z,3.20
2019-01-28T19:45:42.943Z,3.03
2019-01-28T19:48:10.046Z,2.47
2019-01-28T19:50:37.447Z,0.50
2019-01-28T19:53:04.600Z,2.83
2019-01-28T19:55:31.811Z,1.27
2019-01-28T19:57:58.803Z,2.00
2019-01-28T20:00:26.358Z,0.17
2019-01-28T20:02:53.414Z,1.30
2019-01-28T20:05:20.456Z,1.57
2019-01-28T20:07:49.561Z,2.57
2019-01-28T20:10:17.214Z,1.37
2019-01-28T20:12:45.263Z,2.17
2019-01-28T20:15:12.341Z,1.70
2019-01-28T20:17:39.390Z,1.70
2019-01-28T20:20:06.433Z,0.90
2019-01-28T20:22:33.515Z,2.00
2019-01-28T20:25:00.536Z,1.67
2019-01-28T20:27:27.580Z,2.23
2019-01-28T20:29:58.805Z,2.40
2019-01-28T20:32:25.986Z,2.07
2019-01-28T20:34:53.026Z,2.63
2019-01-28T20:37:20.075Z,2.10
2019-01-28T20:39:48.934Z,3.10
2019-01-28T20:42:19.295Z,3.13
2019-01-28T20:44:46.368Z,5.23
2019-01-28T20:47:14.569Z,11.27
2019-01-28T20:49:41.582Z,8.10
2019-01-28T20:52:13.568Z,7.73
2019-01-28T20:54:39.556Z,10.77
2019-01-28T20:57:06.520Z,6.77
2019-01-28T20:59:33.474Z,7.33
2019-01-28T21:02:00.500Z,10.87
2019-01-28T21:04:27.548Z,12.57
2019-01-28T21:06:54.572Z,10.13
2019-01-28T21:09:21.657Z,4.90
2019-01-28T21:11:48.804Z,9.23
2019-01-28T21:14:15.867Z,7.50
2019-01-28T21:16:44.656Z,8.77
2019-01-28T21:19:11.989Z,8.47
2019-01-28T21:21:42.018Z,9.90
2019-01-28T21:24:07.817Z,9.83
2019-01-28T21:26:34.873Z,11.47
2019-01-28T21:29:01.917Z,10.83
2019-01-28T21:31:29.657Z,8.80
2019-01-28T21:33:56.737Z,8.13
2019-01-28T21:36:31.567Z,8.10
2019-01-28T21:38:58.612Z,8.80
2019-01-28T21:41:25.764Z,16.33
2019-01-28T21:43:52.812Z,11.97
2019-01-28T21:46:20.669Z,17.50
2019-01-28T21:48:47.629Z,10.43
2019-01-28T21:51:15.817Z,7.73
2019-01-28T21:53:45.099Z,10.90
2019-01-28T21:56:12.103Z,9.97
2019-01-28T21:58:40.732Z,8.00
2019-01-28T22:01:07.780Z,8.37
2019-01-28T22:03:34.837Z,5.93
2019-01-28T22:06:01.885Z,12.33
2019-01-28T22:08:28.927Z,9.37
2019-01-28T22:10:56.374Z,5.33
2019-01-28T22:13:23.150Z,7.10
2019-01-28T22:15:52.532Z,12.67
2019-01-28T22:18:19.597Z,16.40
2019-01-28T22:20:46.629Z,22.60
2019-01-28T22:23:13.675Z,22.23
2019-01-28T22:25:40.733Z,15.37
2019-01-28T22:28:07.774Z,12.03
2019-01-28T22:30:34.823Z,10.53
2019-01-28T22:33:01.875Z,7.97
2019-01-28T22:35:28.921Z,14.03
2019-01-28T22:37:55.965Z,10.53
2019-01-28T22:40:23.021Z,9.70
2019-01-28T22:42:50.078Z,11.17
2019-01-28T22:45:17.215Z,14.33
2019-01-28T22:47:44.263Z,16.00
2019-01-28T22:50:11.316Z,15.73
2019-01-28T22:52:38.319Z,13.13
2019-01-28T22:55:05.314Z,20.47
2019-01-28T22:57:32.354Z,13.67
2019-01-28T22:59:59.403Z,13.87
2019-01-28T23:02:26.764Z,13.60
2019-01-28T23:04:53.806Z,9.80
2019-01-28T23:07:20.859Z,6.63
2019-01-28T23:09:48.314Z,9.57
2019-01-28T23:12:15.367Z,12.90
2019-01-28T23:14:42.411Z,10.07
2019-01-28T23:17:09.361Z,9.60
2019-01-28T23:19:36.414Z,10.67
2019-01-28T23:22:04.148Z,12.40
2019-01-28T23:24:31.221Z,7.77
2019-01-28T23:26:58.274Z,5.97
2019-01-28T23:29:25.320Z,13.13
2019-01-28T23:31:52.365Z,6.50
2019-01-28T23:34:19.420Z,11.00
2019-01-28T23:36:46.463Z,7.27
2019-01-28T23:39:17.301Z,6.80
2019-01-28T23:41:44.868Z,7.20
2019-01-28T23:44:11.909Z,6.80
2019-01-28T23:46:38.957Z,6.93
2019-01-28T23:49:06.011Z,7.50
2019-01-28T23:51:33.055Z,8.50
2019-01-28T23:54:00.138Z,7.03
2019-01-28T23:56:27.157Z,9.03
2019-01-28T23:58:54.222Z,8.57
